College Station, TX (77840)

9:08 AM CDT en Julio 26, 2016 (GMT -0500)
None | | Change Station

Alt 285 ft 30.60 °N, 96.29 °W | Updated 12 minutes ago

Mostly Cloudy
Muy nublado
78.8 ° F
Sensación térmica 82 ° F
N
0.0
Viento Variable Viento desde ESE

Hoy
Alta -- | Baja -- ° F
--% Posibilidad de precipitaciones
Ayer
Alta -- | Baja -- ° F
Precip. -- pul
Presión 29.95 pul
Visibilidad 10.0 Millas
Nubes Nubes dispersas 800 ft
Muy nublado 2900 ft
Muy nublado 3900 ft
Índice de calor 82 ° F
Punto de rocío 71 ° F
Humedad 78%
Precipitaciones 0.00 pul
Espesor de la nieve No disponible.
6:39 AM 8:23 PM
Gibosa menguante, 54% visible
METAR KCLL 261353Z 04006KT 10SM SCT008 BKN029 BKN039 26/23 A2997 RMK AO2 SLP142 T02560233
Presión 29.95 pul
Visibilidad 10.0 Millas
Nubes Nubes dispersas 800 ft
Muy nublado 2900 ft
Muy nublado 3900 ft
Índice de calor 82 ° F
Punto de rocío 71 ° F
Humedad 78%
Precipitaciones 0.00 pul
Espesor de la nieve No disponible.
6:39 AM 8:23 PM
Gibosa menguante, 54% visible
METAR KCLL 261353Z 04006KT 10SM SCT008 BKN029 BKN039 26/23 A2997 RMK AO2 SLP142 T02560233

10-Day Weather Forecast

Almanac

Astronomía

Jul. 26, 2016 Salida Puesta
Hora real
Crepúsculo civil
Crepúsculo náutico
Crepúsculo astronómico
Luna
Horas de luz
Horas de luz
Tomorrow will be .
, % of the Moon is Illuminated

Extremos de hoy

Máximos del estado Bajos del estado

Community

WunderPhotos

Upload Photos

1,927,588 ¡fotos cargadas!

WunderBlog® & News

Nearby

Calidad del aire

  Calidad del aire Índice AQ Contaminante
Not available.

Grosos de nieve

Estación Profundido Altura

Actividad de terremotos

Ciudad Distance Mag. Tiempo y dato
Magnitud mínima muestra es 2,5.

Temperaturas de aguas costeras

Lugar Temperatura

Stations

Estaciones meteorológicas cercanas

Ubicación de la estación Temp. Vientos helados Punto de rocío Humedad Viento Precip. Alt Actualizado Tipo
                   

Watches & Warnings

There are currently no watches in effect.